Time;durP1;ratioP1;P1;durP2;ratioP2;P2;SDS_P1;SDS_P2;PMS_P1;PMS_P2;Temp;Humidity;BMP_temperature;BMP_pressure;BME280_temperature;BME280_humidity;BME280_pressure;Samples;Min_cycle;Max_cycle;Signal;HPM_P1;HPM_P2
2022/07/29 00:00:03;;;;;;;4.20;3.10;;;15.00;47.20;;;;;;5068301;28;20029;-60
2022/07/29 00:02:28;;;;;;;6.63;2.72;;;14.90;46.80;;;;;;5048647;28;20028;-60
2022/07/29 00:04:54;;;;;;;8.35;3.38;;;14.90;46.90;;;;;;5068161;28;20388;-60
2022/07/29 00:07:19;;;;;;;7.75;3.17;;;14.90;49.00;;;;;;5047415;28;20574;-60
2022/07/29 00:09:45;;;;;;;7.90;3.95;;;14.80;47.50;;;;;;5068130;28;20511;-60
2022/07/29 00:12:10;;;;;;;8.40;3.33;;;14.80;49.60;;;;;;5048505;28;20312;-61
2022/07/29 00:14:35;;;;;;;7.80;3.88;;;14.80;51.20;;;;;;5062061;28;20404;-61
2022/07/29 00:17:01;;;;;;;10.90;4.30;;;14.90;50.90;;;;;;5047264;28;20029;-61
2022/07/29 00:19:26;;;;;;;6.90;4.25;;;14.80;52.80;;;;;;5047443;28;20040;-61
2022/07/29 00:21:52;;;;;;;7.68;4.20;;;14.80;53.40;;;;;;5067187;28;20466;-60
2022/07/29 00:24:17;;;;;;;6.20;3.53;;;14.80;50.60;;;;;;5046638;28;20032;-61
2022/07/29 00:26:43;;;;;;;5.55;3.30;;;14.80;51.20;;;;;;5067028;28;20107;-60
2022/07/29 00:29:08;;;;;;;6.03;3.53;;;14.70;54.90;;;;;;5046753;28;20033;-60
2022/07/29 00:31:34;;;;;;;5.95;3.15;;;14.70;55.40;;;;;;5065625;28;20064;-60
2022/07/29 00:33:59;;;;;;;5.80;3.58;;;14.70;53.20;;;;;;5050604;28;20392;-61
2022/07/29 00:36:25;;;;;;;7.55;3.50;;;14.70;55.20;;;;;;5071212;28;20161;-61
2022/07/29 00:38:51;;;;;;;6.47;3.30;;;14.70;55.00;;;;;;5050491;28;20037;-60
2022/07/29 00:41:18;;;;;;;7.70;3.33;;;14.60;53.80;;;;;;5071089;28;20522;-60
2022/07/29 00:43:44;;;;;;;6.20;3.00;;;14.60;55.50;;;;;;5050262;28;20033;-60
2022/07/29 00:46:10;;;;;;;9.70;3.17;;;14.60;54.40;;;;;;5071282;28;20036;-61
2022/07/29 00:48:35;;;;;;;5.95;3.58;;;14.60;58.30;;;;;;5060099;28;20131;-60
2022/07/29 00:51:03;;;;;;;6.63;2.97;;;14.60;57.40;;;;;;5071624;28;20413;-61
2022/07/29 00:53:29;;;;;;;8.98;3.03;;;14.60;55.80;;;;;;5058900;28;20032;-61
2022/07/29 00:55:55;;;;;;;7.05;3.88;;;14.70;56.10;;;;;;5051732;28;20033;-60
2022/07/29 00:58:22;;;;;;;6.80;3.35;;;14.60;56.50;;;;;;5067441;28;20542;-61
2022/07/29 01:00:47;;;;;;;5.25;2.72;;;14.60;58.30;;;;;;5051846;28;20052;-61
2022/07/29 01:03:13;;;;;;;6.95;3.10;;;14.60;57.70;;;;;;5068709;28;20477;-61
2022/07/29 01:05:42;;;;;;;7.40;3.63;;;14.60;56.70;;;;;;5069971;28;20028;-60
2022/07/29 01:08:08;;;;;;;5.05;3.45;;;14.60;57.60;;;;;;5055068;28;20576;-61
2022/07/29 01:10:38;;;;;;;6.90;3.20;;;14.60;60.00;;;;;;5071245;28;20516;-60
2022/07/29 01:13:04;;;;;;;6.00;3.28;;;14.60;60.00;;;;;;5053984;28;20472;-60
2022/07/29 01:15:30;;;;;;;4.93;2.63;;;14.60;58.80;;;;;;5064926;28;20028;-60
2022/07/29 01:18:16;;;;;;;7.35;3.65;;;14.50;59.30;;;;;;5053299;28;20043;-60
2022/07/29 01:21:21;;;;;;;5.82;3.45;;;14.50;60.70;;;;;;5070957;28;20212;-61
2022/07/29 01:24:10;;;;;;;7.25;3.55;;;14.50;61.20;;;;;;5050338;28;20032;-60
2022/07/29 01:26:42;;;;;;;4.93;2.70;;;14.50;62.10;;;;;;5029631;28;20052;-59
2022/07/29 01:29:38;;;;;;;5.78;3.15;;;14.50;60.80;;;;;;5054393;28;20029;-60
2022/07/29 01:32:11;;;;;;;7.20;3.10;;;14.50;63.20;;;;;;5070490;28;20512;-60
2022/07/29 01:35:06;;;;;;;7.47;3.33;;;14.40;61.10;;;;;;5046158;28;20048;-61
2022/07/29 01:37:43;;;;;;;5.97;3.38;;;14.40;62.90;;;;;;5030827;28;20026;-60
2022/07/29 01:40:21;;;;;;;9.38;3.58;;;14.40;64.40;;;;;;5030648;28;20029;-60
2022/07/29 01:42:54;;;;;;;4.90;3.35;;;14.30;65.20;;;;;;5030995;28;20065;-60
2022/07/29 01:45:24;;;;;;;6.80;3.40;;;14.30;61.90;;;;;;5070664;28;20025;-61
2022/07/29 01:48:04;;;;;;;5.10;3.00;;;14.30;65.50;;;;;;5050521;28;20081;-60
2022/07/29 01:50:49;;;;;;;6.95;3.15;;;14.30;64.00;;;;;;5070526;28;20044;-61
2022/07/29 01:53:25;;;;;;;6.07;2.90;;;14.30;64.70;;;;;;5039500;28;20024;-60
2022/07/29 01:55:51;;;;;;;;;;;14.30;63.50;;;;;;5070937;28;20025;-60
2022/07/29 01:58:18;;;;;;;6.70;2.75;;;14.30;66.80;;;;;;5054414;28;19916;-61
2022/07/29 02:00:46;;;;;;;8.35;3.33;;;14.20;66.40;;;;;;5070320;28;20086;-60
2022/07/29 02:03:13;;;;;;;5.30;3.80;;;14.30;65.90;;;;;;5053394;28;20064;-61
2022/07/29 02:05:42;;;;;;;3.88;2.47;;;14.20;64.60;;;;;;5068926;28;20024;-60
2022/07/29 02:08:09;;;;;;;6.80;3.05;;;14.20;67.40;;;;;;5051125;28;20099;-60
2022/07/29 02:10:36;;;;;;;10.27;3.65;;;14.20;65.60;;;;;;5068748;28;20039;-61
2022/07/29 02:13:03;;;;;;;7.22;3.72;;;14.20;67.80;;;;;;5051272;28;20024;-60
2022/07/29 02:15:32;;;;;;;6.20;3.53;;;14.20;67.60;;;;;;5064143;28;20028;-61
2022/07/29 02:18:10;;;;;;;11.80;3.63;;;14.20;67.90;;;;;;5050366;28;20025;-61
2022/07/29 02:20:38;;;;;;;8.20;3.67;;;14.20;68.20;;;;;;5069936;28;20025;-59
2022/07/29 02:23:05;;;;;;;6.18;2.92;;;14.20;66.90;;;;;;5051218;28;20358;-60
2022/07/29 02:25:31;;;;;;;9.40;3.63;;;14.20;66.60;;;;;;5069962;28;20020;-61
2022/07/29 02:27:58;;;;;;;5.10;3.10;;;14.10;69.50;;;;;;5050314;28;20029;-61
2022/07/29 02:30:25;;;;;;;6.43;3.15;;;14.10;67.50;;;;;;5069756;28;20094;-61
2022/07/29 02:32:53;;;;;;;4.43;2.58;;;14.10;67.90;;;;;;5049065;28;20486;-61
2022/07/29 02:35:21;;;;;;;7.43;3.00;;;14.00;68.50;;;;;;5069869;28;20029;-61
2022/07/29 02:38:49;;;;;;;7.57;2.90;;;14.00;71.20;;;;;;5048043;28;20025;-60
2022/07/29 02:40:34;;;;;;;6.32;2.70;;;14.00;70.90;;;;;;5069409;28;20116;-60
2022/07/29 02:43:03;;;;;;;4.13;2.90;;;13.90;72.10;;;;;;5049716;28;20076;-60
2022/07/29 02:45:29;;;;;;;6.20;3.03;;;13.90;70.90;;;;;;5069661;28;20024;-60
2022/07/29 02:47:57;;;;;;;9.68;3.55;;;13.90;72.50;;;;;;5049121;28;20025;-60
2022/07/29 02:50:34;;;;;;;4.80;2.75;;;13.90;71.90;;;;;;5069406;28;20036;-60
2022/07/29 02:53:18;;;;;;;4.57;2.95;;;13.90;71.70;;;;;;5030843;28;20128;-60
2022/07/29 02:55:51;;;;;;;3.75;2.55;;;13.90;71.80;;;;;;5068591;28;20433;-61
2022/07/29 02:58:31;;;;;;;5.88;3.00;;;13.90;70.60;;;;;;5033834;28;20059;-60
2022/07/29 03:01:01;;;;;;;6.65;2.65;;;13.90;71.10;;;;;;5069065;28;20016;-61
2022/07/29 03:03:37;;;;;;;5.78;3.17;;;13.90;73.60;;;;;;5052125;28;20443;-61
2022/07/29 03:06:04;;;;;;;7.60;3.28;;;13.90;73.90;;;;;;5069102;28;20057;-61
2022/07/29 03:08:32;;;;;;;8.60;3.40;;;13.90;72.50;;;;;;5052771;28;20021;-60
2022/07/29 03:10:58;;;;;;;8.50;2.85;;;13.90;73.80;;;;;;5068872;28;20028;-61
2022/07/29 03:13:24;;;;;;;3.72;2.70;;;13.90;73.80;;;;;;5048400;28;20051;-61
2022/07/29 03:15:50;;;;;;;6.53;2.88;;;13.90;73.80;;;;;;5068780;28;20028;-60
2022/07/29 03:18:16;;;;;;;4.63;2.50;;;13.90;72.60;;;;;;5050645;28;20036;-60
2022/07/29 03:20:42;;;;;;;5.13;2.90;;;13.90;74.10;;;;;;5068942;28;20033;-60
2022/07/29 03:23:08;;;;;;;5.43;2.88;;;13.90;73.60;;;;;;5049237;28;20108;-61
2022/07/29 03:25:34;;;;;;;6.25;3.40;;;13.90;72.70;;;;;;5068866;28;20082;-60
2022/07/29 03:28:00;;;;;;;4.90;2.88;;;14.00;73.50;;;;;;5047860;28;20017;-61
2022/07/29 03:30:25;;;;;;;4.90;2.92;;;13.90;72.80;;;;;;5067370;28;20031;-61
2022/07/29 03:32:52;;;;;;;7.00;3.22;;;14.00;72.20;;;;;;5049061;28;20029;-61
2022/07/29 03:35:18;;;;;;;4.43;2.67;;;14.00;73.50;;;;;;5066286;28;20067;-60
2022/07/29 03:37:44;;;;;;;6.45;2.90;;;14.00;71.60;;;;;;5049118;28;20057;-61
2022/07/29 03:40:14;;;;;;;7.00;2.95;;;14.00;73.00;;;;;;5047680;28;20329;-61
2022/07/29 03:42:42;;;;;;;6.25;3.22;;;14.00;73.10;;;;;;5068163;28;20032;-60
2022/07/29 03:45:12;;;;;;;5.55;3.13;;;14.00;73.00;;;;;;5046720;28;20032;-61
2022/07/29 03:47:42;;;;;;;7.68;2.95;;;14.10;72.90;;;;;;5068098;28;20078;-60
2022/07/29 03:50:10;;;;;;;6.32;3.03;;;14.10;72.70;;;;;;5044229;28;20053;-61
2022/07/29 03:52:36;;;;;;;4.35;2.67;;;14.10;72.00;;;;;;5067876;28;20029;-60
2022/07/29 03:55:02;;;;;;;3.53;2.85;;;14.20;70.90;;;;;;5046804;28;20025;-61
2022/07/29 03:57:30;;;;;;;5.70;3.20;;;14.20;70.90;;;;;;5067540;28;20366;-61
2022/07/29 03:59:56;;;;;;;6.45;3.25;;;14.20;70.30;;;;;;5046553;28;20029;-61
2022/07/29 04:02:22;;;;;;;4.78;2.92;;;14.30;69.90;;;;;;5067685;28;20037;-61
2022/07/29 04:04:48;;;;;;;6.85;2.75;;;14.40;69.30;;;;;;5046650;28;20036;-61
2022/07/29 04:07:15;;;;;;;6.00;2.50;;;14.40;68.50;;;;;;5067488;28;20028;-61
2022/07/29 04:09:41;;;;;;;5.78;3.30;;;14.60;67.50;;;;;;5046467;28;20505;-61
2022/07/29 04:12:06;;;;;;;7.65;3.03;;;14.60;66.30;;;;;;5067514;28;20110;-61
2022/07/29 04:14:33;;;;;;;3.75;2.17;;;14.80;65.50;;;;;;5039765;28;20053;-61
2022/07/29 04:16:59;;;;;;;6.65;2.45;;;14.90;64.70;;;;;;5067437;28;20038;-61
2022/07/29 04:19:25;;;;;;;5.05;2.55;;;14.90;64.30;;;;;;5046555;28;20083;-61
2022/07/29 04:21:51;;;;;;;7.07;2.92;;;14.90;63.90;;;;;;5067228;28;20068;-61
2022/07/29 04:24:16;;;;;;;6.75;3.00;;;14.80;63.90;;;;;;5056306;28;20029;-61
2022/07/29 04:26:42;;;;;;;4.40;2.75;;;14.80;64.10;;;;;;5048406;28;20033;-61
2022/07/29 04:29:07;;;;;;;6.00;2.80;;;15.00;63.50;;;;;;5065284;28;20033;-61
2022/07/29 04:31:32;;;;;;;6.65;2.88;;;15.20;62.00;;;;;;5048647;28;20029;-60
2022/07/29 04:33:58;;;;;;;6.15;2.58;;;15.40;59.60;;;;;;5065188;28;20505;-61
2022/07/29 04:36:23;;;;;;;7.45;2.70;;;15.50;58.80;;;;;;5067904;28;20028;-61
2022/07/29 04:38:49;;;;;;;11.80;3.00;;;15.50;58.60;;;;;;5052100;28;20023;-61
2022/07/29 04:41:15;;;;;;;4.63;2.95;;;15.60;58.00;;;;;;5067776;28;20060;-61
2022/07/29 04:43:40;;;;;;;6.00;2.60;;;15.50;57.70;;;;;;5050850;28;20059;-61
2022/07/29 04:46:06;;;;;;;4.90;2.50;;;15.60;58.20;;;;;;5067826;28;20048;-61
2022/07/29 04:48:32;;;;;;;5.32;3.00;;;15.70;57.60;;;;;;5046629;28;20454;-61
2022/07/29 04:50:58;;;;;;;5.80;2.47;;;15.80;56.40;;;;;;5047772;28;20029;-61
2022/07/29 04:53:24;;;;;;;4.53;3.03;;;15.80;55.80;;;;;;5065107;28;20028;-61
2022/07/29 04:55:49;;;;;;;4.90;2.92;;;16.20;54.80;;;;;;5067496;28;20024;-62
2022/07/29 04:58:15;;;;;;;3.22;2.20;;;16.60;51.80;;;;;;5046750;28;20599;-61
2022/07/29 05:00:40;;;;;;;4.90;2.45;;;17.10;49.90;;;;;;5067694;28;20017;-63
2022/07/29 05:03:06;;;;;;;6.70;2.72;;;17.80;45.00;;;;;;5048262;28;20036;-48
2022/07/29 05:05:31;;;;;;;4.47;2.58;;;18.60;44.00;;;;;;5046011;28;20065;-48
2022/07/29 05:07:57;;;;;;;4.57;2.47;;;19.10;36.50;;;;;;5066799;28;20040;-50
2022/07/29 05:10:23;;;;;;;6.72;2.90;;;18.80;35.70;;;;;;5046277;28;20028;-49
2022/07/29 05:12:48;;;;;;;6.32;2.72;;;18.30;38.70;;;;;;5066714;28;20150;-51
2022/07/29 05:15:14;;;;;;;4.68;2.58;;;18.20;39.90;;;;;;5040205;28;20049;-51
2022/07/29 05:17:40;;;;;;;7.88;2.30;;;18.00;39.10;;;;;;5066825;28;20046;-48
2022/07/29 05:20:06;;;;;;;6.45;3.00;;;17.80;39.80;;;;;;5049707;28;20029;-53
2022/07/29 05:22:31;;;;;;;5.85;3.03;;;17.60;41.50;;;;;;5070439;28;20032;-52
2022/07/29 05:24:57;;;;;;;3.40;2.38;;;17.60;42.90;;;;;;5049808;28;20021;-54
2022/07/29 05:27:22;;;;;;;3.20;2.00;;;17.60;42.60;;;;;;5070233;28;20032;-51
2022/07/29 05:29:48;;;;;;;4.72;3.00;;;17.50;42.30;;;;;;5049808;28;20061;-50
2022/07/29 05:32:13;;;;;;;7.50;2.67;;;17.30;42.70;;;;;;5068816;28;20052;-49
2022/07/29 05:34:40;;;;;;;5.72;2.78;;;17.20;43.90;;;;;;5060333;28;20075;-50
2022/07/29 05:37:05;;;;;;;6.07;2.97;;;17.20;44.40;;;;;;5051482;28;20247;-52
2022/07/29 05:39:31;;;;;;;8.38;2.75;;;17.20;44.40;;;;;;5068025;28;20454;-49
2022/07/29 05:41:56;;;;;;;4.10;2.30;;;17.50;43.80;;;;;;5051160;28;20017;-49
2022/07/29 05:44:22;;;;;;;4.30;2.35;;;17.80;43.30;;;;;;5066727;28;20028;-48
2022/07/29 05:46:47;;;;;;;4.65;2.20;;;17.80;41.70;;;;;;5051129;28;20025;-51
2022/07/29 05:49:13;;;;;;;4.50;2.28;;;18.10;42.00;;;;;;5058593;28;20045;-49
2022/07/29 05:51:38;;;;;;;5.88;2.45;;;18.40;39.50;;;;;;5069720;28;20029;-50
2022/07/29 05:54:04;;;;;;;3.85;2.22;;;19.00;38.90;;;;;;5054738;28;20040;-48
2022/07/29 05:56:29;;;;;;;4.03;2.00;;;19.20;35.80;;;;;;5070389;28;20036;-53
2022/07/29 05:58:54;;;;;;;4.05;2.33;;;19.30;34.00;;;;;;5053122;28;20033;-50
2022/07/29 06:01:20;;;;;;;5.15;2.63;;;19.20;34.30;;;;;;5070538;28;20035;-50
2022/07/29 06:03:46;;;;;;;3.38;2.13;;;18.60;35.80;;;;;;5051604;28;20434;-52
2022/07/29 06:06:12;;;;;;;4.45;2.47;;;18.60;37.50;;;;;;5070392;28;20480;-51
2022/07/29 06:08:37;;;;;;;6.32;2.45;;;18.40;36.30;;;;;;5050134;28;20033;-49
2022/07/29 06:11:04;;;;;;;5.68;2.30;;;18.10;38.00;;;;;;5070274;28;20020;-54
2022/07/29 06:13:30;;;;;;;5.07;2.40;;;17.80;39.60;;;;;;5049580;28;20563;-51
2022/07/29 06:15:55;;;;;;;4.38;2.35;;;17.80;40.60;;;;;;5050018;28;20048;-52
2022/07/29 06:18:23;;;;;;;4.68;2.40;;;17.70;40.40;;;;;;5068158;28;20036;-50
2022/07/29 06:20:50;;;;;;;2.60;2.20;;;17.50;41.60;;;;;;5048479;28;20029;-48
2022/07/29 06:23:15;;;;;;;4.85;2.45;;;17.50;42.00;;;;;;5069323;28;20021;-49
2022/07/29 06:25:41;;;;;;;4.15;1.98;;;17.60;42.20;;;;;;5048606;28;20043;-51
2022/07/29 06:28:06;;;;;;;5.22;2.00;;;17.60;42.00;;;;;;5069097;28;20033;-49
2022/07/29 06:30:32;;;;;;;3.45;2.67;;;17.70;42.20;;;;;;5047554;28;20218;-51
2022/07/29 06:32:57;;;;;;;4.28;2.40;;;17.80;41.40;;;;;;5067849;28;20500;-49
2022/07/29 06:35:23;;;;;;;3.45;2.45;;;17.90;41.20;;;;;;5048494;28;20396;-51
2022/07/29 06:37:48;;;;;;;6.72;2.38;;;18.10;39.80;;;;;;5069163;28;20404;-53
2022/07/29 06:42:57;;;;;;;4.47;2.10;;;20.30;33.20;;;;;;5029744;28;20048;-53
2022/07/29 06:45:24;;;;;;;4.93;2.05;;;21.60;28.20;;;;;;5051478;28;20037;-50
2022/07/29 06:47:49;;;;;;;5.55;2.10;;;22.20;24.20;;;;;;5068618;28;20397;-51
2022/07/29 06:50:15;;;;;;;4.28;1.88;;;22.10;26.60;;;;;;5048005;28;20041;-49
2022/07/29 06:52:40;;;;;;;3.63;2.28;;;22.20;22.50;;;;;;5068775;28;20028;-49
2022/07/29 06:55:08;;;;;;;2.92;1.60;;;22.10;25.20;;;;;;5047835;28;20041;-50
2022/07/29 06:57:34;;;;;;;2.95;1.90;;;22.10;25.80;;;;;;5068578;28;20111;-53
2022/07/29 06:59:59;;;;;;;5.18;2.30;;;22.20;24.10;;;;;;5048140;28;20100;-51
2022/07/29 07:02:25;;;;;;;3.35;2.08;;;22.60;22.40;;;;;;5068446;28;20028;-52
2022/07/29 07:04:51;;;;;;;3.72;2.03;;;23.20;22.50;;;;;;5057759;28;20032;-52
2022/07/29 07:07:16;;;;;;;6.70;1.85;;;23.60;18.60;;;;;;5049487;28;20063;-50
2022/07/29 07:09:42;;;;;;;4.47;1.92;;;23.60;18.90;;;;;;5066212;28;20056;-47
2022/07/29 07:12:07;;;;;;;5.82;2.75;;;23.20;21.00;;;;;;5049437;28;20481;-48
2022/07/29 07:14:33;;;;;;;5.20;1.80;;;22.90;20.40;;;;;;5063088;28;20239;-47
2022/07/29 07:17:00;;;;;;;4.72;2.25;;;22.50;21.00;;;;;;5068984;28;20220;-47
2022/07/29 07:19:26;;;;;;;3.45;2.00;;;22.30;19.80;;;;;;5053501;28;20468;-48
2022/07/29 07:21:53;;;;;;;3.97;1.67;;;22.00;21.60;;;;;;5069040;28;20048;-49
2022/07/29 07:24:19;;;;;;;4.43;1.92;;;21.90;22.50;;;;;;5052111;28;20025;-46
2022/07/29 07:26:44;;;;;;;5.85;2.13;;;22.00;21.50;;;;;;5068662;28;20488;-49
2022/07/29 07:29:11;;;;;;;3.75;1.80;;;21.80;22.90;;;;;;5050989;28;20031;-50
2022/07/29 07:31:37;;;;;;;3.85;2.00;;;21.80;21.80;;;;;;5068545;28;20021;-46
2022/07/29 07:34:03;;;;;;;4.22;2.25;;;21.80;23.40;;;;;;5049588;28;20029;-47
2022/07/29 07:36:28;;;;;;;6.30;2.25;;;21.80;23.00;;;;;;5069011;28;20024;-52
2022/07/29 07:38:54;;;;;;;3.72;1.70;;;21.70;23.20;;;;;;5048381;28;20047;-52
2022/07/29 07:41:20;;;;;;;4.50;1.67;;;22.10;22.90;;;;;;5068139;28;20021;-50
2022/07/29 07:43:45;;;;;;;5.55;2.05;;;23.10;20.60;;;;;;5048746;28;20062;-49
2022/07/29 07:46:11;;;;;;;4.78;2.00;;;24.20;17.00;;;;;;5066024;28;20031;-52
2022/07/29 07:48:36;;;;;;;3.38;1.80;;;25.30;15.20;;;;;;5052521;28;20564;-47
2022/07/29 07:51:02;;;;;;;5.03;2.20;;;26.40;12.90;;;;;;5048032;28;20020;-47
2022/07/29 07:53:29;;;;;;;3.45;2.20;;;26.50;9.20;;;;;;5067566;28;20021;-49
2022/07/29 07:55:55;;;;;;;6.30;2.05;;;26.50;10.00;;;;;;5046621;28;20132;-49
2022/07/29 07:58:20;;;;;;;3.50;1.98;;;26.90;7.20;;;;;;5067488;28;20029;-48
2022/07/29 08:00:46;;;;;;;4.63;1.83;;;27.50;8.30;;;;;;5046875;28;20032;-50
2022/07/29 08:03:13;;;;;;;2.97;1.83;;;28.00;5.00;;;;;;5067523;28;20032;-48
2022/07/29 08:05:39;;;;;;;6.03;2.40;;;28.90;3.80;;;;;;5046743;28;20024;-49
2022/07/29 08:08:05;;;;;;;2.42;1.55;;;29.50;1.20;;;;;;5067465;28;20111;-51
2022/07/29 08:13:14;;;;;;;5.30;1.90;;;30.30;2.10;;;;;;5027122;28;20132;-48
2022/07/29 08:15:41;;;;;;;3.97;1.98;;;30.20;1.30;;;;;;5051384;28;20056;-52
2022/07/29 08:18:07;;;;;;;4.13;1.85;;;29.60;1.00;;;;;;5067462;28;20478;-48
2022/07/29 08:20:35;;;;;;;6.22;2.20;;;29.50;1.00;;;;;;5046611;28;20041;-52
2022/07/29 08:23:01;;;;;;;2.25;1.67;;;29.30;1.00;;;;;;5067672;28;20036;-50
2022/07/29 08:25:26;;;;;;;3.05;1.60;;;29.50;1.10;;;;;;5046665;28;20099;-47
2022/07/29 08:27:52;;;;;;;3.20;1.70;;;30.40;1.00;;;;;;5067104;28;20119;-48
2022/07/29 08:30:17;;;;;;;6.78;2.03;;;30.40;1.00;;;;;;5046633;28;20417;-51
2022/07/29 08:32:43;;;;;;;3.80;1.75;;;30.80;1.00;;;;;;5066934;28;20032;-47
2022/07/29 08:35:08;;;;;;;4.03;1.77;;;30.00;1.00;;;;;;5056260;28;20098;-49
2022/07/29 08:37:34;;;;;;;3.22;1.50;;;29.60;1.00;;;;;;5048369;28;20033;-48
2022/07/29 08:39:59;;;;;;;6.47;1.60;;;29.00;1.00;;;;;;5065209;28;20033;-50
2022/07/29 08:42:25;;;;;;;2.47;1.70;;;29.40;1.00;;;;;;5048309;28;20037;-48
2022/07/29 08:44:50;;;;;;;2.72;1.50;;;29.50;1.00;;;;;;5065155;28;20021;-52
2022/07/29 08:47:16;;;;;;;2.95;1.67;;;29.50;1.00;;;;;;5067746;28;20028;-47
2022/07/29 08:49:42;;;;;;;4.57;2.03;;;29.00;1.00;;;;;;5051689;28;20472;-49
2022/07/29 08:52:10;;;;;;;3.15;1.80;;;28.50;1.00;;;;;;5067864;28;20099;-51
2022/07/29 08:54:36;;;;;;;2.65;1.65;;;28.10;1.00;;;;;;5053853;28;20524;-51
2022/07/29 08:57:02;;;;;;;4.78;2.00;;;28.30;1.00;;;;;;5071537;28;20025;-48
2022/07/29 08:59:29;;;;;;;2.45;1.60;;;27.30;1.10;;;;;;5053581;28;20024;-47
2022/07/29 09:01:59;;;;;;;2.33;1.63;;;27.30;1.90;;;;;;5071431;28;20114;-51
2022/07/29 09:04:26;;;;;;;3.22;1.60;;;27.50;1.70;;;;;;5052607;28;20113;-49
2022/07/29 09:06:56;;;;;;;3.50;1.50;;;27.80;1.80;;;;;;5071334;28;20032;-47
2022/07/29 09:09:22;;;;;;;7.65;2.08;;;28.30;1.20;;;;;;5051830;28;20075;-49
2022/07/29 09:11:48;;;;;;;6.82;2.03;;;28.20;1.00;;;;;;5071220;28;20020;-47
2022/07/29 09:14:14;;;;;;;5.90;2.15;;;27.20;1.10;;;;;;5053727;28;20036;-47
2022/07/29 09:16:48;;;;;;;6.43;1.52;;;27.20;1.70;;;;;;5071067;28;20080;-47
2022/07/29 09:19:39;;;;;;;3.05;1.65;;;26.80;1.10;;;;;;5031321;28;20112;-49
2022/07/29 09:22:06;;;;;;;2.58;1.63;;;26.80;1.00;;;;;;5069982;28;20028;-52
2022/07/29 09:24:42;;;;;;;2.08;1.30;;;27.00;1.00;;;;;;5052946;28;20031;-47
2022/07/29 09:27:09;;;;;;;;;;;27.40;1.00;;;;;;5071737;28;20074;-49
2022/07/29 09:29:35;;;;;;;6.03;1.85;;;27.30;1.00;;;;;;5053007;28;20464;-47
2022/07/29 09:32:02;;;;;;;3.67;1.55;;;26.90;1.00;;;;;;5070970;28;20107;-47
2022/07/29 09:34:31;;;;;;;5.57;1.83;;;26.90;1.00;;;;;;5051599;28;20037;-48
2022/07/29 09:36:56;;;;;;;7.43;1.60;;;26.90;1.00;;;;;;5070742;28;20035;-46
2022/07/29 09:39:37;;;;;;;4.82;2.13;;;26.80;1.00;;;;;;5050912;28;20033;-47
2022/07/29 09:42:05;;;;;;;3.85;1.92;;;26.60;1.00;;;;;;5070978;28;20040;-47
2022/07/29 09:44:45;;;;;;;5.75;1.95;;;26.50;1.00;;;;;;5051775;28;21211;-50
2022/07/29 09:47:11;;;;;;;2.92;1.67;;;26.10;1.20;;;;;;5070737;28;20025;-47
2022/07/29 09:49:52;;;;;;;3.97;1.52;;;26.10;1.40;;;;;;5052350;28;20041;-49
2022/07/29 09:52:18;;;;;;;2.95;1.80;;;26.30;1.90;;;;;;5070462;28;20166;-50
2022/07/29 09:54:44;;;;;;;2.75;1.60;;;26.30;1.10;;;;;;5053101;28;20107;-49
2022/07/29 09:57:26;;;;;;;2.40;1.75;;;26.50;1.50;;;;;;5070387;28;20028;-47
2022/07/29 10:00:17;;;;;;;2.92;1.45;;;26.70;1.50;;;;;;5038783;28;20020;-48
2022/07/29 10:02:45;;;;;;;3.05;1.60;;;26.90;1.40;;;;;;5070309;28;20484;-53
2022/07/29 10:05:22;;;;;;;4.43;1.70;;;26.70;1.70;;;;;;5056157;28;20090;-50
2022/07/29 10:07:53;;;;;;;3.33;1.65;;;27.00;1.20;;;;;;5050373;28;20033;-47
2022/07/29 10:10:23;;;;;;;3.72;1.80;;;27.30;1.20;;;;;;5067947;28;20399;-55
2022/07/29 10:12:57;;;;;;;7.25;2.22;;;27.20;1.00;;;;;;5050004;28;20068;-50
2022/07/29 10:15:25;;;;;;;4.38;1.60;;;26.90;1.00;;;;;;5064656;28;20052;-53
2022/07/29 10:17:52;;;;;;;4.28;1.80;;;26.90;1.00;;;;;;5050203;28;20036;-52
2022/07/29 10:20:19;;;;;;;2.35;1.45;;;27.00;1.20;;;;;;5067633;28;20058;-50
2022/07/29 10:22:46;;;;;;;3.67;1.70;;;27.00;1.00;;;;;;5050178;28;20037;-51
2022/07/29 10:25:13;;;;;;;2.45;1.73;;;27.00;1.00;;;;;;5067461;28;20123;-51
2022/07/29 10:27:39;;;;;;;5.15;2.03;;;27.10;1.00;;;;;;5070020;28;20055;-51
2022/07/29 10:30:06;;;;;;;3.17;1.80;;;26.90;1.00;;;;;;5054595;28;20477;-52
2022/07/29 10:32:37;;;;;;;4.35;1.98;;;27.00;1.00;;;;;;5069774;28;20385;-52
2022/07/29 10:35:19;;;;;;;4.30;2.10;;;26.90;1.00;;;;;;5039391;28;20063;-51
2022/07/29 10:38:15;;;;;;;4.10;1.85;;;26.90;1.00;;;;;;5069516;28;20347;-55
2022/07/29 10:43:47;;;;;;;4.05;1.83;;;26.60;1.00;;;;;;5049506;28;20043;-54
2022/07/29 10:46:14;;;;;;;3.97;1.60;;;26.60;1.00;;;;;;5050761;28;20060;-52
2022/07/29 10:49:17;;;;;;;5.30;2.25;;;26.90;1.00;;;;;;5064005;28;20118;-53
2022/07/29 10:52:03;;;;;;;13.20;2.53;;;26.60;1.10;;;;;;5047594;28;20029;-48
2022/07/29 10:54:50;;;;;;;3.72;1.90;;;26.30;2.40;;;;;;5066812;28;20147;-54
2022/07/29 10:57:20;;;;;;;4.85;2.03;;;26.30;2.50;;;;;;5069325;28;20052;-52
2022/07/29 10:59:51;;;;;;;3.95;1.88;;;26.40;1.60;;;;;;5050127;28;20649;-54
2022/07/29 11:02:35;;;;;;;2.15;1.45;;;26.30;1.00;;;;;;5069434;28;20244;-54
2022/07/29 11:05:08;;;;;;;4.22;1.70;;;26.50;1.30;;;;;;5052472;28;20124;-62
2022/07/29 11:07:36;;;;;;;4.57;1.90;;;26.40;1.30;;;;;;5069267;28;20444;-52
2022/07/29 11:10:14;;;;;;;4.68;1.88;;;26.40;1.00;;;;;;5051972;28;20032;-56
2022/07/29 11:12:42;;;;;;;6.40;2.40;;;26.40;1.20;;;;;;5068943;28;20303;-53
2022/07/29 11:15:16;;;;;;;4.10;2.30;;;26.30;1.30;;;;;;5046928;28;20039;-55
2022/07/29 11:17:54;;;;;;;14.07;2.17;;;26.20;2.50;;;;;;5068536;28;20028;-55
2022/07/29 11:20:44;;;;;;;3.78;2.03;;;26.20;3.00;;;;;;5054271;28;20024;-52
2022/07/29 11:23:31;;;;;;;4.15;2.30;;;26.00;3.50;;;;;;5028925;28;20497;-50
2022/07/29 11:26:12;;;;;;;6.25;2.25;;;25.70;4.10;;;;;;5050226;28;20060;-52
2022/07/29 11:28:56;;;;;;;4.55;1.90;;;25.70;4.10;;;;;;5049150;28;20025;-51
2022/07/29 11:31:35;;;;;;;2.40;1.85;;;25.90;4.70;;;;;;5051131;28;20021;-48
2022/07/29 11:34:20;;;;;;;4.05;1.80;;;26.20;4.50;;;;;;5068257;28;20252;-51
2022/07/29 11:37:13;;;;;;;6.10;2.13;;;26.50;4.00;;;;;;5047138;28;20132;-51
2022/07/29 11:40:09;;;;;;;3.15;2.00;;;26.60;4.80;;;;;;5027835;28;20036;-51
2022/07/29 11:42:35;;;;;;;5.28;2.05;;;26.60;4.50;;;;;;5065871;28;20044;-51
2022/07/29 11:45:15;;;;;;;3.90;2.05;;;26.80;4.00;;;;;;5050683;28;20028;-52
2022/07/29 11:47:47;;;;;;;5.97;2.42;;;26.80;4.40;;;;;;5068407;28;20024;-49
2022/07/29 11:50:16;;;;;;;3.92;2.17;;;26.60;4.00;;;;;;5051797;28;20040;-51
2022/07/29 11:52:46;;;;;;;3.58;2.10;;;26.50;4.50;;;;;;5068336;28;20023;-51
2022/07/29 11:55:17;;;;;;;3.15;2.00;;;26.40;4.70;;;;;;5036098;28;20594;-50
2022/07/29 11:57:58;;;;;;;3.35;2.22;;;26.30;5.20;;;;;;5066857;28;20027;-51
2022/07/29 12:00:30;;;;;;;4.03;2.25;;;26.30;6.10;;;;;;5039056;28;20017;-50
2022/07/29 12:02:57;;;;;;;4.82;2.28;;;26.30;6.70;;;;;;5068182;28;20104;-53
2022/07/29 12:05:31;;;;;;;4.65;2.40;;;26.40;6.30;;;;;;5052491;28;20047;-48
2022/07/29 12:08:04;;;;;;;7.03;2.65;;;26.50;6.20;;;;;;5068239;28;20278;-47
2022/07/29 12:10:30;;;;;;;3.95;2.20;;;26.50;6.70;;;;;;5040123;28;20081;-50
2022/07/29 12:12:56;;;;;;;3.83;2.47;;;26.40;6.00;;;;;;5068126;28;20033;-50
2022/07/29 12:15:23;;;;;;;3.40;2.17;;;26.60;6.70;;;;;;5045855;28;20028;-53
2022/07/29 12:17:49;;;;;;;4.40;2.60;;;26.50;6.80;;;;;;5066777;28;20397;-48
2022/07/29 12:20:24;;;;;;;3.30;2.33;;;26.50;6.90;;;;;;5051296;28;20037;-50
2022/07/29 12:22:50;;;;;;;15.65;3.05;;;26.60;6.40;;;;;;5068260;28;20086;-48
2022/07/29 12:25:16;;;;;;;5.63;2.90;;;26.70;5.60;;;;;;5050903;28;20551;-50
2022/07/29 12:27:45;;;;;;;5.22;2.25;;;26.60;6.20;;;;;;5068313;28;20062;-52
2022/07/29 12:30:15;;;;;;;3.33;2.30;;;26.50;6.40;;;;;;5054254;28;20507;-47
2022/07/29 12:32:44;;;;;;;6.55;2.42;;;26.50;6.10;;;;;;5072252;28;20397;-48
2022/07/29 12:35:15;;;;;;;3.55;2.40;;;26.70;5.10;;;;;;5053635;28;20033;-49
2022/07/29 12:37:42;;;;;;;4.95;2.42;;;26.90;5.40;;;;;;5072066;28;20020;-50
2022/07/29 12:40:10;;;;;;;4.85;2.42;;;27.10;5.70;;;;;;5053268;28;20059;-51
2022/07/29 12:42:37;;;;;;;10.30;2.60;;;26.90;5.20;;;;;;5071887;28;20806;-48
2022/07/29 12:45:04;;;;;;;6.43;2.55;;;26.80;4.30;;;;;;5052474;28;20397;-48
2022/07/29 12:47:30;;;;;;;4.47;2.42;;;26.90;4.20;;;;;;5071997;28;20023;-53
2022/07/29 12:50:09;;;;;;;8.27;2.10;;;27.20;4.00;;;;;;5051050;28;20339;-48
2022/07/29 12:52:35;;;;;;;5.55;2.75;;;27.30;3.50;;;;;;5071821;28;20519;-49
2022/07/29 12:55:01;;;;;;;3.17;2.08;;;27.20;3.40;;;;;;5051512;28;20087;-48
2022/07/29 12:57:27;;;;;;;3.88;2.15;;;27.20;3.80;;;;;;5071677;28;20522;-48
2022/07/29 13:00:09;;;;;;;3.92;2.40;;;27.30;3.20;;;;;;5050465;28;20116;-52
2022/07/29 13:02:35;;;;;;;2.92;2.05;;;27.30;2.70;;;;;;5071554;28;20036;-48
2022/07/29 13:05:01;;;;;;;4.57;2.05;;;27.40;2.50;;;;;;5051346;28;20029;-47
2022/07/29 13:07:29;;;;;;;4.68;2.53;;;27.50;2.30;;;;;;5071517;28;20099;-50